createdAt,value
2023-02-05T00:01:19.884Z,104375.47
2023-02-05T00:03:47.774Z,104358.81
2023-02-05T00:06:15.803Z,104359.59
2023-02-05T00:08:43.713Z,104381.44
2023-02-05T00:11:11.611Z,104404.44
2023-02-05T00:13:40.473Z,104408.91
2023-02-05T00:16:08.914Z,104406.38
2023-02-05T00:18:38.674Z,104379.13
2023-02-05T00:21:06.760Z,104370.41
2023-02-05T00:23:34.663Z,104379.22
2023-02-05T00:26:02.482Z,104394.22
2023-02-05T00:28:32.338Z,104407.47
2023-02-05T00:31:00.422Z,104397.00
2023-02-05T00:33:28.645Z,104383.88
2023-02-05T00:35:58.005Z,104363.91
2023-02-05T00:38:25.871Z,104363.91
2023-02-05T00:40:53.664Z,104372.56
2023-02-05T00:43:21.670Z,104386.69
2023-02-05T00:45:49.595Z,104390.28
2023-02-05T00:48:17.564Z,104380.59
2023-02-05T00:50:45.586Z,104362.22
2023-02-05T00:53:14.873Z,104360.53
2023-02-05T00:55:43.371Z,104406.97
2023-02-05T00:58:11.291Z,104437.81
2023-02-05T01:00:39.229Z,104442.19
2023-02-05T01:03:07.210Z,104439.59
2023-02-05T01:05:35.506Z,104430.94
2023-02-05T01:08:03.835Z,104438.03
2023-02-05T01:10:33.652Z,104463.41
2023-02-05T01:13:01.718Z,104486.09
2023-02-05T01:15:29.609Z,104497.50
2023-02-05T01:17:58.730Z,104481.00
2023-02-05T01:20:27.020Z,104478.47
2023-02-05T01:22:54.957Z,104492.47
2023-02-05T01:25:22.953Z,104506.69
2023-02-05T01:27:52.671Z,104516.28
2023-02-05T01:30:20.724Z,104525.03
2023-02-05T01:32:48.525Z,104527.66
2023-02-05T01:35:16.425Z,104523.38
2023-02-05T01:37:44.289Z,104517.28
2023-02-05T01:40:14.983Z,104494.59
2023-02-05T01:42:43.152Z,104512.13
2023-02-05T01:45:29.743Z,104526.22
2023-02-05T01:48:00.292Z,104541.88
2023-02-05T01:50:30.900Z,104528.81
2023-02-05T01:53:00.168Z,104508.72
2023-02-05T01:55:29.222Z,104505.19
2023-02-05T01:57:57.720Z,104526.22
2023-02-05T02:00:25.732Z,104535.09
2023-02-05T02:02:53.643Z,104531.59
2023-02-05T02:05:23.091Z,104526.38
2023-02-05T02:07:50.996Z,104536.16
2023-02-05T02:10:19.619Z,104558.09
2023-02-05T02:12:49.034Z,104571.19
2023-02-05T02:15:18.385Z,104575.59
2023-02-05T02:17:47.680Z,104573.81
2023-02-05T02:20:17.150Z,104572.06
2023-02-05T02:22:55.259Z,104562.56
2023-02-05T02:25:35.091Z,104568.72
2023-02-05T02:28:08.463Z,104584.44
2023-02-05T02:30:41.819Z,104575.78
2023-02-05T02:33:13.975Z,104566.25
2023-02-05T02:35:45.753Z,104540.16
2023-02-05T02:38:17.302Z,104541.03
2023-02-05T02:40:47.883Z,104554.25
2023-02-05T02:43:18.420Z,104551.72
2023-02-05T02:45:48.937Z,104532.53
2023-02-05T02:48:19.310Z,104514.97
2023-02-05T02:50:49.867Z,104514.13
2023-02-05T02:53:20.326Z,104541.25
2023-02-05T02:55:49.415Z,104570.25
2023-02-05T02:58:21.988Z,104554.72
2023-02-05T03:00:50.631Z,104525.03
2023-02-05T03:03:20.818Z,104518.94
2023-02-05T03:05:50.497Z,104549.72
2023-02-05T03:08:20.854Z,104552.25
2023-02-05T03:10:52.182Z,104527.94
2023-02-05T03:13:21.386Z,104512.19
2023-02-05T03:15:49.582Z,104510.44
2023-02-05T03:18:19.583Z,104508.59
2023-02-05T03:20:51.036Z,104522.69
2023-02-05T03:23:19.559Z,104533.34
2023-02-05T03:25:47.504Z,104535.06
2023-02-05T03:28:15.566Z,104508.09
2023-02-05T03:30:53.535Z,104505.53
2023-02-05T03:33:42.239Z,104515.03
2023-02-05T03:36:14.870Z,104530.84
2023-02-05T03:38:53.358Z,104555.34
2023-02-05T03:41:47.316Z,104565.81
2023-02-05T03:44:21.692Z,104573.75
2023-02-05T03:46:57.739Z,104586.91
2023-02-05T03:49:31.628Z,104613.09
2023-02-05T03:52:03.391Z,104606.16
2023-02-05T03:54:35.759Z,104600.00
2023-02-05T03:57:06.988Z,104620.94
2023-02-05T03:59:35.185Z,104628.78
2023-02-05T04:02:04.916Z,104621.78
2023-02-05T04:04:33.153Z,104620.88
2023-02-05T04:07:01.069Z,104627.84
2023-02-05T04:09:28.933Z,104629.63
2023-02-05T04:11:56.896Z,104628.78
2023-02-05T04:14:24.839Z,104617.47
2023-02-05T04:16:52.747Z,104612.28
2023-02-05T04:19:22.000Z,104621.19
2023-02-05T04:21:49.782Z,104632.50
2023-02-05T04:24:17.868Z,104625.59
2023-02-05T04:26:45.823Z,104621.25
2023-02-05T04:29:13.719Z,104641.47
2023-02-05T04:31:41.739Z,104665.13
2023-02-05T04:34:09.615Z,104648.63
2023-02-05T04:36:40.182Z,104632.81
2023-02-05T04:39:08.138Z,104641.47
2023-02-05T04:41:35.968Z,104651.97
2023-02-05T04:44:03.847Z,104641.53
2023-02-05T04:46:31.782Z,104623.19
2023-02-05T04:48:59.683Z,104631.09
2023-02-05T04:51:27.572Z,104634.66
2023-02-05T04:53:56.921Z,104633.84
2023-02-05T04:56:24.765Z,104638.28
2023-02-05T04:58:52.800Z,104611.38
2023-02-05T05:01:21.951Z,104621.75
2023-02-05T05:03:50.342Z,104632.31
2023-02-05T05:06:18.832Z,104632.25
2023-02-05T05:08:46.867Z,104624.47
2023-02-05T05:11:17.392Z,104630.53
2023-02-05T05:13:45.386Z,104621.06
2023-02-05T05:16:13.760Z,104611.50
2023-02-05T05:18:41.756Z,104625.53
2023-02-05T05:21:09.719Z,104615.16
2023-02-05T05:23:38.189Z,104611.56
2023-02-05T05:26:07.226Z,104644.72
2023-02-05T05:28:36.884Z,104643.06
2023-02-05T05:31:08.631Z,104620.44
2023-02-05T05:33:36.711Z,104644.88
2023-02-05T05:36:06.994Z,104642.38
2023-02-05T05:38:34.956Z,104629.28
2023-02-05T05:41:20.321Z,104618.00
2023-02-05T05:43:49.974Z,104620.59
2023-02-05T05:46:22.121Z,104618.03
2023-02-05T05:48:51.222Z,104620.59
2023-02-05T05:51:19.311Z,104625.88
2023-02-05T05:53:47.692Z,104624.31
2023-02-05T05:56:15.654Z,104605.16
2023-02-05T05:58:44.531Z,104607.66
2023-02-05T06:01:14.441Z,104606.97
2023-02-05T06:03:42.430Z,104610.38
2023-02-05T06:06:11.685Z,104601.63
2023-02-05T06:08:39.494Z,104589.41
2023-02-05T06:11:07.851Z,104585.88
2023-02-05T06:13:36.015Z,104594.69
2023-02-05T06:16:04.088Z,104577.34
2023-02-05T06:18:33.568Z,104577.28
2023-02-05T06:21:03.622Z,104589.50
2023-02-05T06:23:31.712Z,104600.88
2023-02-05T06:25:59.725Z,104601.09
2023-02-05T06:28:27.756Z,104599.34
2023-02-05T06:30:55.761Z,104589.78
2023-02-05T06:33:23.617Z,104590.63
2023-02-05T06:35:52.940Z,104594.19
2023-02-05T06:38:20.941Z,104593.44
2023-02-05T06:40:49.190Z,104591.78
2023-02-05T06:43:17.122Z,104598.72
2023-02-05T06:45:44.994Z,104599.63
2023-02-05T06:48:13.070Z,104595.38
2023-02-05T06:50:40.886Z,104606.69
2023-02-05T06:53:11.852Z,104600.53
2023-02-05T06:55:39.908Z,104607.34
2023-02-05T06:58:08.569Z,104603.09
2023-02-05T07:00:36.583Z,104603.09
2023-02-05T07:03:04.889Z,104602.28
2023-02-05T07:05:34.133Z,104607.47
2023-02-05T07:08:04.160Z,104623.16
2023-02-05T07:10:33.471Z,104627.59
2023-02-05T07:13:01.357Z,104637.38
2023-02-05T07:15:29.415Z,104648.69
2023-02-05T07:17:57.376Z,104641.88
2023-02-05T07:20:25.470Z,104647.09
2023-02-05T07:22:53.446Z,104645.34
2023-02-05T07:25:21.388Z,104637.50
2023-02-05T07:27:50.648Z,104633.13
2023-02-05T07:30:18.902Z,104647.84
2023-02-05T07:32:46.680Z,104641.72
2023-02-05T07:35:14.664Z,104645.97
2023-02-05T07:37:42.605Z,104643.31
2023-02-05T07:40:10.904Z,104645.94
2023-02-05T07:42:38.782Z,104659.84
2023-02-05T07:45:08.839Z,104646.00
2023-02-05T07:47:36.662Z,104651.22
2023-02-05T07:50:06.332Z,104655.56
2023-02-05T07:52:34.529Z,104650.28
2023-02-05T07:55:02.445Z,104650.34
2023-02-05T07:57:30.531Z,104648.53
2023-02-05T07:59:58.462Z,104646.03
2023-02-05T08:02:27.781Z,104633.00
2023-02-05T08:04:55.672Z,104648.66
2023-02-05T08:07:23.625Z,104650.44
2023-02-05T08:09:51.448Z,104646.00
2023-02-05T08:12:19.381Z,104647.69
2023-02-05T08:14:47.361Z,104643.25
2023-02-05T08:17:15.300Z,104647.63
2023-02-05T08:19:44.542Z,104649.38
2023-02-05T08:22:12.504Z,104645.06
2023-02-05T08:24:40.358Z,104649.41
2023-02-05T08:27:08.184Z,104636.38
2023-02-05T08:29:36.139Z,104636.31
2023-02-05T08:32:03.996Z,104645.03
2023-02-05T08:34:31.907Z,104631.97
2023-02-05T08:37:01.326Z,104631.03
2023-02-05T08:39:29.254Z,104634.44
2023-02-05T08:41:57.265Z,104633.50
2023-02-05T08:44:25.318Z,104624.75
2023-02-05T08:46:53.381Z,104619.50
2023-02-05T08:49:21.189Z,104627.19
2023-02-05T08:51:49.417Z,104635.84
2023-02-05T08:54:18.651Z,104629.75
2023-02-05T08:56:46.988Z,104626.16
2023-02-05T08:59:14.965Z,104631.41
2023-02-05T09:01:43.395Z,104626.06
2023-02-05T09:04:13.700Z,104624.28
2023-02-05T09:06:41.901Z,104618.91
2023-02-05T09:09:10.005Z,104614.47
2023-02-05T09:11:39.699Z,104608.22
2023-02-05T09:14:07.964Z,104609.75
2023-02-05T09:16:36.334Z,104622.72
2023-02-05T09:19:04.367Z,104617.34
2023-02-05T09:21:32.188Z,104616.31
2023-02-05T09:24:00.252Z,104617.09
2023-02-05T09:26:28.268Z,104619.50
2023-02-05T09:28:57.586Z,104629.88
2023-02-05T09:31:25.879Z,104624.59
2023-02-05T09:33:55.783Z,104630.63
2023-02-05T09:36:24.227Z,104641.03
2023-02-05T09:39:05.016Z,104630.47
2023-02-05T09:41:45.951Z,104629.44
2023-02-05T09:44:18.475Z,104633.81
2023-02-05T09:46:52.048Z,104625.00
2023-02-05T09:49:22.799Z,104622.06
2023-02-05T09:51:52.776Z,104620.16
2023-02-05T09:54:23.829Z,104619.94
2023-02-05T09:56:52.647Z,104628.41
2023-02-05T09:59:24.464Z,104612.53
2023-02-05T10:01:53.609Z,104619.38
2023-02-05T10:04:21.555Z,104616.53
2023-02-05T10:07:14.829Z,104612.78
2023-02-05T10:09:57.744Z,104619.59
2023-02-05T10:12:33.972Z,104608.88
2023-02-05T10:15:13.021Z,104609.59
2023-02-05T10:17:47.749Z,104615.53
2023-02-05T10:20:21.201Z,104617.94
2023-02-05T10:22:55.530Z,104607.41
2023-02-05T10:25:30.444Z,104613.34
2023-02-05T10:28:01.958Z,104607.13
2023-02-05T10:30:33.159Z,104608.63
2023-02-05T10:33:01.865Z,104606.03
2023-02-05T10:35:36.139Z,104612.13
2023-02-05T10:38:07.171Z,104606.03
2023-02-05T10:40:39.417Z,104606.03
2023-02-05T10:43:16.946Z,104615.59
2023-02-05T10:45:46.183Z,104608.56
2023-02-05T10:48:27.257Z,104607.56
2023-02-05T10:50:58.995Z,104594.38
2023-02-05T10:53:28.231Z,104601.03
2023-02-05T10:55:56.251Z,104602.34
2023-02-05T10:58:37.957Z,104595.09
2023-02-05T11:01:07.976Z,104596.44
2023-02-05T11:03:36.898Z,104593.59
2023-02-05T11:06:09.264Z,104602.16
2023-02-05T11:08:38.282Z,104598.53
2023-02-05T11:11:06.553Z,104590.56
2023-02-05T11:13:36.577Z,104590.56
2023-02-05T11:16:05.738Z,104587.03
2023-02-05T11:19:25.234Z,104590.56
2023-02-05T11:21:55.398Z,104564.31
2023-02-05T11:24:25.242Z,104579.16
2023-02-05T11:27:12.726Z,104570.50
2023-02-05T11:29:40.687Z,104573.03
2023-02-05T11:32:19.319Z,104577.28
2023-02-05T11:34:48.745Z,104569.06
2023-02-05T11:37:18.254Z,104583.81
2023-02-05T11:39:47.434Z,104583.75
2023-02-05T11:42:20.303Z,104586.25
2023-02-05T11:44:50.186Z,104580.78
2023-02-05T11:47:25.190Z,104577.97
2023-02-05T11:49:54.878Z,104572.69
2023-02-05T11:52:26.830Z,104577.78
2023-02-05T11:54:55.176Z,104572.09
2023-02-05T11:57:32.429Z,104576.19
2023-02-05T12:00:01.303Z,104570.75
2023-02-05T12:02:31.655Z,104570.81
2023-02-05T12:05:04.057Z,104571.63
2023-02-05T12:07:36.563Z,104569.00
2023-02-05T12:10:04.808Z,104570.69
2023-02-05T12:12:37.373Z,104561.59
2023-02-05T12:15:12.004Z,104547.41
2023-02-05T12:17:41.864Z,104545.38
2023-02-05T12:20:30.507Z,104545.19
2023-02-05T12:23:11.089Z,104544.81
2023-02-05T12:25:43.960Z,104540.09
2023-02-05T12:28:21.031Z,104541.34
2023-02-05T12:30:55.207Z,104545.50
2023-02-05T12:33:31.436Z,104532.88
2023-02-05T12:36:07.698Z,104525.53
2023-02-05T12:38:45.045Z,104527.84
2023-02-05T12:41:20.434Z,104522.44
2023-02-05T12:45:00.908Z,104527.16
2023-02-05T12:47:49.097Z,104519.19
2023-02-05T12:50:36.324Z,104512.16
2023-02-05T12:53:21.075Z,104508.94
2023-02-05T12:56:07.072Z,104518.53
2023-02-05T12:58:38.950Z,104499.38
2023-02-05T13:01:27.234Z,104504.66
2023-02-05T13:04:01.248Z,104508.22
2023-02-05T13:06:34.969Z,104498.41
2023-02-05T13:09:07.985Z,104501.97
2023-02-05T13:11:42.311Z,104499.19
2023-02-05T13:14:18.873Z,104504.31
2023-02-05T13:16:53.754Z,104498.13
2023-02-05T13:19:29.601Z,104508.94
2023-02-05T13:22:22.660Z,104516.97
2023-02-05T13:25:10.864Z,104515.34
2023-02-05T13:28:00.755Z,104504.84
2023-02-05T13:30:36.658Z,104503.16
2023-02-05T13:33:08.308Z,104505.66
2023-02-05T13:35:45.106Z,104508.13
2023-02-05T13:38:41.262Z,104503.03
2023-02-05T13:41:43.222Z,104504.09
2023-02-05T13:44:23.577Z,104494.47
2023-02-05T13:47:20.028Z,104482.09
2023-02-05T13:50:29.406Z,104482.81
2023-02-05T13:53:13.884Z,104478.09
2023-02-05T13:56:12.155Z,104473.31
2023-02-05T13:58:47.496Z,104472.13
2023-02-05T14:01:22.407Z,104479.94
2023-02-05T14:03:58.594Z,104461.50
2023-02-05T14:06:32.076Z,104464.09
2023-02-05T14:09:04.981Z,104463.94
2023-02-05T14:11:53.941Z,104457.81
2023-02-05T14:14:26.231Z,104447.28
2023-02-05T14:16:56.136Z,104452.69
2023-02-05T14:19:27.813Z,104445.00
2023-02-05T14:22:01.527Z,104447.84
2023-02-05T14:24:41.167Z,104446.97
2023-02-05T14:27:49.109Z,104449.63
2023-02-05T14:30:48.566Z,104444.31
2023-02-05T14:33:38.007Z,104437.06
2023-02-05T14:36:34.324Z,104430.78
2023-02-05T14:39:06.103Z,104439.59
2023-02-05T14:41:50.849Z,104432.72
2023-02-05T14:44:26.513Z,104423.16
2023-02-05T14:47:02.590Z,104415.47
2023-02-05T14:49:38.137Z,104416.53
2023-02-05T14:52:09.651Z,104402.88
2023-02-05T14:54:43.188Z,104407.66
2023-02-05T14:57:23.118Z,104409.84
2023-02-05T14:59:55.595Z,104403.03
2023-02-05T15:02:49.626Z,104393.84
2023-02-05T15:05:22.994Z,104398.47
2023-02-05T15:07:54.785Z,104397.94
2023-02-05T15:10:28.320Z,104391.19
2023-02-05T15:13:04.459Z,104392.19
2023-02-05T15:15:35.873Z,104388.75
2023-02-05T15:18:05.914Z,104388.06
2023-02-05T15:20:38.151Z,104385.47
2023-02-05T15:23:19.562Z,104386.41
2023-02-05T15:25:55.710Z,104384.75
2023-02-05T15:28:31.861Z,104385.88
2023-02-05T15:31:10.265Z,104385.22
2023-02-05T15:33:47.672Z,104389.81
2023-02-05T15:36:22.859Z,104378.63
2023-02-05T15:39:02.773Z,104382.22
2023-02-05T15:41:33.614Z,104386.78
2023-02-05T15:44:05.068Z,104389.50
2023-02-05T15:46:34.741Z,104385.09
2023-02-05T15:49:03.108Z,104383.47
2023-02-05T15:51:34.237Z,104384.34
2023-02-05T15:54:04.260Z,104380.19
2023-02-05T15:56:36.514Z,104395.94
2023-02-05T15:59:14.919Z,104399.47
2023-02-05T16:01:48.104Z,104400.38
2023-02-05T16:04:20.867Z,104396.06
2023-02-05T16:06:49.241Z,104406.50
2023-02-05T16:09:19.381Z,104403.00
2023-02-05T16:11:48.520Z,104398.69
2023-02-05T16:14:19.788Z,104390.00
2023-02-05T16:17:01.230Z,104395.31
2023-02-05T16:19:33.621Z,104390.13
2023-02-05T16:22:08.997Z,104384.06
2023-02-05T16:24:42.500Z,104386.88
2023-02-05T16:27:15.258Z,104373.94
2023-02-05T16:29:48.559Z,104377.63
2023-02-05T16:32:26.514Z,104373.28
2023-02-05T16:34:54.749Z,104368.16
2023-02-05T16:37:28.380Z,104363.88
2023-02-05T16:39:58.340Z,104350.00
2023-02-05T16:42:34.298Z,104360.59
2023-02-05T16:45:21.442Z,104360.78
2023-02-05T16:48:22.890Z,104356.56
2023-02-05T16:50:52.263Z,104362.00
2023-02-05T16:53:26.340Z,104356.06
2023-02-05T16:55:59.399Z,104354.56
2023-02-05T16:58:32.844Z,104352.09
2023-02-05T17:01:06.057Z,104355.75
2023-02-05T17:03:37.540Z,104353.31
2023-02-05T17:06:09.297Z,104356.97
2023-02-05T17:08:38.582Z,104351.91
2023-02-05T17:11:09.851Z,104357.38
2023-02-05T17:13:40.073Z,104357.56
2023-02-05T17:16:26.851Z,104362.06
2023-02-05T17:19:01.598Z,104359.75
2023-02-05T17:21:31.597Z,104359.91
2023-02-05T17:24:01.711Z,104366.19
2023-02-05T17:26:32.940Z,104366.28
2023-02-05T17:29:02.805Z,104366.38
2023-02-05T17:31:36.648Z,104365.66
2023-02-05T17:34:05.146Z,104364.06
2023-02-05T17:36:33.321Z,104369.47
2023-02-05T17:39:01.547Z,104360.75
2023-02-05T17:41:50.789Z,104359.16
2023-02-05T17:44:22.257Z,104364.56
2023-02-05T17:46:54.251Z,104359.38
2023-02-05T17:49:22.770Z,104362.16
2023-02-05T17:51:51.283Z,104360.44
2023-02-05T17:54:21.904Z,104354.47
2023-02-05T17:56:51.180Z,104355.41
2023-02-05T17:59:21.198Z,104358.94
2023-02-05T18:01:51.916Z,104366.97
2023-02-05T18:04:20.422Z,104367.03
2023-02-05T18:06:50.320Z,104368.81
2023-02-05T18:09:20.177Z,104364.59
2023-02-05T18:11:48.432Z,104369.00
2023-02-05T18:14:16.755Z,104363.88
2023-02-05T18:16:45.001Z,104367.38
2023-02-05T18:19:15.025Z,104363.97
2023-02-05T18:21:43.198Z,104366.75
2023-02-05T18:24:11.379Z,104355.44
2023-02-05T18:26:39.567Z,104354.59
2023-02-05T18:29:07.795Z,104347.81
2023-02-05T18:31:36.256Z,104353.22
2023-02-05T18:34:04.405Z,104344.56
2023-02-05T18:36:33.925Z,104347.28
2023-02-05T18:39:02.281Z,104343.81
2023-02-05T18:41:31.595Z,104339.50
2023-02-05T18:44:00.791Z,104340.47
2023-02-05T18:46:30.233Z,104338.81
2023-02-05T18:48:58.345Z,104329.31
2023-02-05T18:51:26.499Z,104334.53
2023-02-05T18:53:56.172Z,104339.84
2023-02-05T18:56:26.702Z,104341.56
2023-02-05T18:58:59.276Z,104333.88
2023-02-05T19:01:29.297Z,104337.31
2023-02-05T19:03:57.757Z,104334.75
2023-02-05T19:06:25.866Z,104335.66
2023-02-05T19:08:57.290Z,104336.50
2023-02-05T19:11:27.503Z,104329.69
2023-02-05T19:13:57.472Z,104321.09
2023-02-05T19:16:27.804Z,104323.81
2023-02-05T19:18:56.360Z,104328.22
2023-02-05T19:21:26.849Z,104333.47
2023-02-05T19:23:58.518Z,104332.75
2023-02-05T19:26:28.358Z,104339.84
2023-02-05T19:28:58.506Z,104336.38
2023-02-05T19:31:28.495Z,104343.41
2023-02-05T19:33:57.271Z,104346.94
2023-02-05T19:36:28.058Z,104345.25
2023-02-05T19:38:57.777Z,104344.47
2023-02-05T19:41:27.745Z,104353.22
2023-02-05T19:43:57.875Z,104342.00
2023-02-05T19:46:28.280Z,104352.47
2023-02-05T19:48:57.381Z,104352.53
2023-02-05T19:51:25.584Z,104352.59
2023-02-05T19:53:53.750Z,104356.09
2023-02-05T19:56:24.176Z,104346.66
2023-02-05T19:58:54.031Z,104345.91
2023-02-05T20:01:24.663Z,104339.81
2023-02-05T20:03:54.126Z,104329.41
2023-02-05T20:06:24.566Z,104336.44
2023-02-05T20:08:52.962Z,104332.03
2023-02-05T20:11:21.733Z,104328.63
2023-02-05T20:13:51.605Z,104326.09
2023-02-05T20:16:21.551Z,104327.09
2023-02-05T20:18:54.713Z,104325.44
2023-02-05T20:21:23.443Z,104315.91
2023-02-05T20:23:52.241Z,104317.75
2023-02-05T20:26:22.369Z,104319.59
2023-02-05T20:29:09.256Z,104313.56
2023-02-05T20:31:43.046Z,104312.72
2023-02-05T20:34:18.116Z,104316.19
2023-02-05T20:36:47.140Z,104309.25
2023-02-05T20:39:17.284Z,104307.56
2023-02-05T20:41:46.309Z,104299.75
2023-02-05T20:44:16.505Z,104305.88
2023-02-05T20:46:45.236Z,104295.47
2023-02-05T20:49:14.185Z,104299.91
2023-02-05T20:51:43.148Z,104299.06
2023-02-05T20:54:11.739Z,104288.69
2023-02-05T20:56:40.084Z,104298.28
2023-02-05T20:59:09.401Z,104289.59
2023-02-05T21:01:40.606Z,104289.59
2023-02-05T21:04:10.512Z,104290.53
2023-02-05T21:06:40.337Z,104287.97
2023-02-05T21:09:10.324Z,104288.03
2023-02-05T21:11:39.058Z,104280.13
2023-02-05T21:14:08.293Z,104282.69
2023-02-05T21:16:39.037Z,104276.59
2023-02-05T21:19:08.307Z,104280.00
2023-02-05T21:21:38.368Z,104278.28
2023-02-05T21:24:09.043Z,104267.91
2023-02-05T21:26:38.731Z,104271.38
2023-02-05T21:29:10.234Z,104272.28
2023-02-05T21:31:40.444Z,104272.28
2023-02-05T21:34:10.344Z,104277.72
2023-02-05T21:36:38.492Z,104278.69
2023-02-05T21:39:06.792Z,104278.72
2023-02-05T21:41:35.205Z,104273.53
2023-02-05T21:44:03.433Z,104276.19
2023-02-05T21:46:31.745Z,104269.28
2023-02-05T21:49:02.175Z,104280.69
2023-02-05T21:51:33.214Z,104279.03
2023-02-05T21:54:03.875Z,104287.78
2023-02-05T21:56:34.803Z,104290.41
2023-02-05T21:59:03.165Z,104282.72
2023-02-05T22:01:33.031Z,104283.63
2023-02-05T22:04:04.566Z,104278.38
2023-02-05T22:06:34.833Z,104281.00
2023-02-05T22:09:04.267Z,104272.31
2023-02-05T22:11:32.696Z,104283.72
2023-02-05T22:14:01.159Z,104280.28
2023-02-05T22:16:31.740Z,104275.91
2023-02-05T22:19:02.716Z,104278.50
2023-02-05T22:21:33.389Z,104278.56
2023-02-05T22:24:02.726Z,104272.50
2023-02-05T22:26:32.547Z,104271.72
2023-02-05T22:29:02.012Z,104270.88
2023-02-05T22:31:31.031Z,104270.06
2023-02-05T22:33:59.728Z,104259.63
2023-02-05T22:36:31.276Z,104255.38
2023-02-05T22:38:59.848Z,104260.53
2023-02-05T22:41:30.018Z,104254.41
2023-02-05T22:44:00.028Z,104256.13
2023-02-05T22:46:30.576Z,104262.25
2023-02-05T22:49:00.411Z,104259.69
2023-02-05T22:51:32.316Z,104259.63
2023-02-05T22:54:01.306Z,104261.44
2023-02-05T22:56:30.091Z,104266.69
2023-02-05T22:59:00.264Z,104271.97
2023-02-05T23:01:31.951Z,104278.91
2023-02-05T23:04:00.815Z,104270.28
2023-02-05T23:06:32.399Z,104267.59
2023-02-05T23:09:02.389Z,104266.75
2023-02-05T23:11:32.766Z,104278.06
2023-02-05T23:14:02.124Z,104270.28
2023-02-05T23:16:32.751Z,104263.28
2023-02-05T23:19:02.938Z,104261.59
2023-02-05T23:21:34.560Z,104265.13
2023-02-05T23:24:03.327Z,104268.59
2023-02-05T23:26:33.594Z,104260.94
2023-02-05T23:29:02.001Z,104258.31
2023-02-05T23:31:30.824Z,104258.25
2023-02-05T23:33:59.211Z,104260.88
2023-02-05T23:36:27.483Z,104270.41
2023-02-05T23:38:57.089Z,104259.09
2023-02-05T23:41:37.576Z,104263.41
2023-02-05T23:44:08.292Z,104256.47
2023-02-05T23:46:37.279Z,104259.03
2023-02-05T23:49:05.959Z,104259.91
2023-02-05T23:51:34.274Z,104259.13
2023-02-05T23:54:04.188Z,104258.19
2023-02-05T23:56:32.854Z,104257.25
2023-02-05T23:59:01.148Z,104253.88
